Agoura, California
Current Conditions -  °F | °C
As of 8:51 PM on Saturday 22 Nov 2014 (Local Time) from KVNY Reporting Station
Clear Clear  
Wind Chill: 16°   Ceiling: Unl
Heat Index: 16°   Visibility: 10mi
Dew Point: 12°   Wind: 3mph
Humidity: 78%   Direction: 80°E
Pressure: 30.04"   Gusts: NA
Location:  34.1232°N, 118.77°W
Report Text: KVNY 230451Z 08003KT 10SM CLR 16/12 A3004 RMK AO2 SLP167 T01560117
Loading
Personal Weather Stations






























Interactive Weather Map New forecast layout! Learn more

10-Day Weather Forecast

Advertisements
Track Severe Weather on mobile